Time;durP1;ratioP1;P1;durP2;ratioP2;P2;SDS_P1;SDS_P2;PMS_P1;PMS_P2;Temp;Humidity;BMP_temperature;BMP_pressure;BME280_temperature;BME280_humidity;BME280_pressure;Samples;Min_cycle;Max_cycle;Signal;HPM_P1;HPM_P2
2022/06/11 00:01:13;;;;;;;63.80;5.20;;;;;;;;;;5093790;28;20793;-74
2022/06/11 00:03:40;;;;;;;61.00;4.77;;;;;;;;;;5093265;28;20498;-74
2022/06/11 00:06:09;;;;;;;63.80;4.40;;;;;;;;;;5093397;28;20538;-74
2022/06/11 00:08:37;;;;;;;61.80;4.47;;;;;;;;;;5092962;28;20522;-74
2022/06/11 00:11:04;;;;;;;60.20;4.50;;;;;;;;;;5093329;28;20456;-74
2022/06/11 00:13:31;;;;;;;60.60;4.23;;;;;;;;;;5093349;28;20466;-74
2022/06/11 00:16:01;;;;;;;61.00;5.00;;;;;;;;;;5093286;28;20897;-74
2022/06/11 00:18:28;;;;;;;61.67;4.83;;;;;;;;;;5092501;28;20459;-74
2022/06/11 00:20:55;;;;;;;60.70;4.30;;;;;;;;;;5093111;28;20564;-74
2022/06/11 00:23:24;;;;;;;60.87;4.43;;;;;;;;;;5093107;28;20489;-74
2022/06/11 00:25:51;;;;;;;61.47;5.83;;;;;;;;;;5093276;28;20443;-74
2022/06/11 00:28:18;;;;;;;60.47;4.43;;;;;;;;;;5092652;28;20439;-74
2022/06/11 00:30:47;;;;;;;60.40;4.40;;;;;;;;;;5093016;28;20944;-74
2022/06/11 00:33:14;;;;;;;60.67;4.30;;;;;;;;;;5092670;28;20462;-74
2022/06/11 00:35:42;;;;;;;60.37;4.57;;;;;;;;;;5092266;28;20831;-74
2022/06/11 00:38:10;;;;;;;61.17;4.03;;;;;;;;;;5092097;28;20557;-75
2022/06/11 00:40:41;;;;;;;60.63;4.43;;;;;;;;;;5092790;28;20449;-74
2022/06/11 00:43:08;;;;;;;60.10;4.10;;;;;;;;;;5092604;28;20475;-74
2022/06/11 00:45:36;;;;;;;60.63;4.10;;;;;;;;;;5092745;28;20531;-74
2022/06/11 00:48:06;;;;;;;61.27;4.67;;;;;;;;;;5091990;28;20462;-74
2022/06/11 00:50:37;;;;;;;62.00;4.67;;;;;;;;;;5092559;28;20447;-74
2022/06/11 00:53:05;;;;;;;60.13;4.20;;;;;;;;;;5092567;28;20473;-74
2022/06/11 00:55:36;;;;;;;59.77;4.87;;;;;;;;;;5092834;28;20548;-74
2022/06/11 00:58:06;;;;;;;66.97;4.60;;;;;;;;;;5091874;28;20457;-74
2022/06/11 01:00:35;;;;;;;61.87;4.67;;;;;;;;;;5092422;28;20466;-74
2022/06/11 01:03:03;;;;;;;61.37;4.30;;;;;;;;;;5092243;28;21005;-74
2022/06/11 01:05:32;;;;;;;60.10;4.30;;;;;;;;;;5092664;28;20459;-74
2022/06/11 01:08:17;;;;;;;61.70;4.60;;;;;;;;;;5091739;28;20442;-74
2022/06/11 01:11:03;;;;;;;62.10;4.60;;;;;;;;;;5092177;28;20442;-74
2022/06/11 01:13:35;;;;;;;60.57;4.03;;;;;;;;;;5092461;28;20748;-74
2022/06/11 01:16:04;;;;;;;61.60;4.50;;;;;;;;;;5092295;28;20452;-74
2022/06/11 01:18:36;;;;;;;60.60;4.70;;;;;;;;;;5091583;28;20888;-74
2022/06/11 01:21:08;;;;;;;61.80;4.53;;;;;;;;;;5092239;28;20452;-72
2022/06/11 01:23:53;;;;;;;60.00;3.90;;;;;;;;;;5092264;28;20849;-72
2022/06/11 01:26:47;;;;;;;60.70;4.23;;;;;;;;;;5092195;28;20453;-72
2022/06/11 01:29:27;;;;;;;60.03;4.57;;;;;;;;;;5091517;28;20450;-73
2022/06/11 01:31:57;;;;;;;60.57;4.63;;;;;;;;;;5092185;28;20554;-74
2022/06/11 01:34:39;;;;;;;60.40;4.50;;;;;;;;;;5092127;28;20471;-74
2022/06/11 01:37:09;;;;;;;59.57;3.97;;;;;;;;;;5091918;28;20461;-74
2022/06/11 01:39:40;;;;;;;61.40;4.37;;;;;;;;;;5092067;28;20818;-74
2022/06/11 01:42:14;;;;;;;64.10;4.40;;;;;;;;;;5091829;28;20476;-74
2022/06/11 01:44:43;;;;;;;61.70;4.80;;;;;;;;;;5092217;28;20830;-74
2022/06/11 01:47:12;;;;;;;61.00;5.00;;;;;;;;;;5097249;28;20915;-75
2022/06/11 01:49:42;;;;;;;59.97;4.27;;;;;;;;;;5094724;28;21020;-74
2022/06/11 01:52:17;;;;;;;60.00;4.17;;;;;;;;;;5098594;28;20464;-74
2022/06/11 01:54:48;;;;;;;60.67;4.50;;;;;;;;;;5098764;28;20825;-74
2022/06/11 01:57:22;;;;;;;59.80;4.10;;;;;;;;;;5097972;28;20456;-74
2022/06/11 02:00:01;;;;;;;62.53;4.43;;;;;;;;;;5098439;28;20450;-74
2022/06/11 02:02:37;;;;;;;60.60;4.20;;;;;;;;;;5098498;28;20481;-75
2022/06/11 02:05:08;;;;;;;59.90;4.60;;;;;;;;;;5098511;28;20478;-74
2022/06/11 02:07:41;;;;;;;65.60;5.00;;;;;;;;;;5097769;28;20442;-74
2022/06/11 02:10:11;;;;;;;59.70;3.97;;;;;;;;;;5098411;28;20541;-74
2022/06/11 02:12:40;;;;;;;63.87;4.60;;;;;;;;;;5098487;28;20466;-74
2022/06/11 02:15:13;;;;;;;61.10;4.50;;;;;;;;;;5098543;28;20797;-74
2022/06/11 02:17:41;;;;;;;63.77;4.70;;;;;;;;;;5097795;28;20533;-74
2022/06/11 02:20:10;;;;;;;60.00;3.80;;;;;;;;;;5098425;28;20457;-74
2022/06/11 02:22:42;;;;;;;61.50;4.57;;;;;;;;;;5098232;28;20462;-74
2022/06/11 02:25:12;;;;;;;60.37;4.27;;;;;;;;;;5098504;28;20492;-74
2022/06/11 02:27:41;;;;;;;60.83;4.30;;;;;;;;;;5097738;28;20504;-74
2022/06/11 02:30:11;;;;;;;60.17;4.53;;;;;;;;;;5098312;28;20446;-74
2022/06/11 02:32:38;;;;;;;62.53;4.03;;;;;;;;;;5098291;28;20539;-74
2022/06/11 02:35:07;;;;;;;60.77;4.30;;;;;;;;;;5098028;28;20450;-74
2022/06/11 02:37:36;;;;;;;65.43;4.70;;;;;;;;;;5097594;28;20523;-74
2022/06/11 02:40:05;;;;;;;61.40;5.20;;;;;;;;;;5098400;28;20452;-74
2022/06/11 02:42:33;;;;;;;60.47;4.10;;;;;;;;;;5098039;28;20552;-74
2022/06/11 02:45:00;;;;;;;61.37;4.10;;;;;;;;;;5098024;28;20489;-74
2022/06/11 02:47:28;;;;;;;61.37;4.40;;;;;;;;;;5097393;28;21038;-74
2022/06/11 02:49:55;;;;;;;60.60;4.27;;;;;;;;;;5098049;28;20457;-74
2022/06/11 02:52:24;;;;;;;61.10;4.40;;;;;;;;;;5098027;28;20850;-75
2022/06/11 02:54:51;;;;;;;60.83;4.07;;;;;;;;;;5098245;28;20446;-74
2022/06/11 02:57:20;;;;;;;60.17;4.23;;;;;;;;;;5095668;28;20536;-74
2022/06/11 02:59:48;;;;;;;59.50;3.80;;;;;;;;;;5094798;28;20446;-74
2022/06/11 03:02:15;;;;;;;59.70;4.53;;;;;;;;;;5094506;28;20469;-74
2022/06/11 03:04:45;;;;;;;62.23;4.60;;;;;;;;;;5095023;28;20481;-74
2022/06/11 03:07:12;;;;;;;60.00;4.23;;;;;;;;;;5094377;28;20538;-74
2022/06/11 03:09:40;;;;;;;59.97;4.03;;;;;;;;;;5094771;28;20452;-74
2022/06/11 03:12:08;;;;;;;61.00;4.77;;;;;;;;;;5094575;28;20474;-74
2022/06/11 03:14:35;;;;;;;62.27;4.63;;;;;;;;;;5094310;28;20967;-74
2022/06/11 03:17:03;;;;;;;62.27;4.37;;;;;;;;;;5094654;28;20886;-74
2022/06/11 03:19:30;;;;;;;60.87;4.50;;;;;;;;;;5094089;28;20522;-74
2022/06/11 03:21:58;;;;;;;60.50;3.87;;;;;;;;;;5094465;28;20504;-74
2022/06/11 03:24:27;;;;;;;60.70;4.53;;;;;;;;;;5094303;28;20482;-74
2022/06/11 03:26:54;;;;;;;59.97;3.90;;;;;;;;;;5094252;28;20796;-74
2022/06/11 03:29:21;;;;;;;63.80;5.37;;;;;;;;;;5093524;28;20543;-74
2022/06/11 03:31:49;;;;;;;61.07;4.57;;;;;;;;;;5094389;28;20466;-74
2022/06/11 03:34:17;;;;;;;61.50;4.73;;;;;;;;;;5094127;28;20942;-74
2022/06/11 03:36:44;;;;;;;61.47;4.50;;;;;;;;;;5094078;28;20539;-74
2022/06/11 03:39:15;;;;;;;59.70;3.87;;;;;;;;;;5093318;28;20549;-74
2022/06/11 03:41:43;;;;;;;60.37;3.93;;;;;;;;;;5094072;28;20527;-74
2022/06/11 03:44:10;;;;;;;60.00;4.23;;;;;;;;;;5093648;28;20509;-74
2022/06/11 03:46:37;;;;;;;59.57;3.73;;;;;;;;;;5094073;28;20442;-74
2022/06/11 03:49:04;;;;;;;61.00;3.80;;;;;;;;;;5093458;28;20442;-74
2022/06/11 03:51:31;;;;;;;60.60;4.00;;;;;;;;;;5093909;28;21017;-74
2022/06/11 03:53:59;;;;;;;61.30;4.40;;;;;;;;;;5093720;28;20451;-74
2022/06/11 03:56:27;;;;;;;62.50;4.50;;;;;;;;;;5093597;28;20540;-74
2022/06/11 03:58:54;;;;;;;60.13;3.70;;;;;;;;;;5093268;28;20447;-74
2022/06/11 04:01:23;;;;;;;60.17;4.37;;;;;;;;;;5093760;28;20826;-74
2022/06/11 04:03:51;;;;;;;73.87;4.93;;;;;;;;;;5093600;28;20499;-74
2022/06/11 04:06:19;;;;;;;60.77;4.13;;;;;;;;;;5093598;28;20861;-74
2022/06/11 04:08:46;;;;;;;61.60;4.47;;;;;;;;;;5092154;28;20889;-74
2022/06/11 04:11:14;;;;;;;61.47;4.50;;;;;;;;;;5093075;28;20450;-74
2022/06/11 04:13:44;;;;;;;60.73;4.07;;;;;;;;;;5093440;28;20498;-74
2022/06/11 04:16:18;;;;;;;64.07;5.33;;;;;;;;;;5093246;28;20438;-74
2022/06/11 04:18:47;;;;;;;62.73;4.20;;;;;;;;;;5092720;28;20540;-75
2022/06/11 04:21:15;;;;;;;60.50;4.13;;;;;;;;;;5093178;28;20464;-74
2022/06/11 04:23:44;;;;;;;60.47;4.03;;;;;;;;;;5093022;28;20453;-74
2022/06/11 04:26:13;;;;;;;59.70;4.07;;;;;;;;;;5093309;28;20862;-74
2022/06/11 04:28:40;;;;;;;60.57;4.53;;;;;;;;;;5092721;28;20452;-74
2022/06/11 04:31:09;;;;;;;62.97;4.97;;;;;;;;;;5093023;28;20508;-74
2022/06/11 04:33:38;;;;;;;60.23;4.50;;;;;;;;;;5092927;28;20526;-74
2022/06/11 04:36:06;;;;;;;59.87;4.33;;;;;;;;;;5092950;28;20814;-74
2022/06/11 04:38:33;;;;;;;60.30;4.10;;;;;;;;;;5092321;28;20460;-74
2022/06/11 04:41:00;;;;;;;60.27;4.33;;;;;;;;;;5092995;28;20456;-75
2022/06/11 04:43:27;;;;;;;60.70;4.60;;;;;;;;;;5092649;28;20470;-74
2022/06/11 04:45:54;;;;;;;60.20;4.50;;;;;;;;;;5092820;28;20487;-74
2022/06/11 04:48:23;;;;;;;62.30;4.60;;;;;;;;;;5092153;28;20481;-74
2022/06/11 04:50:50;;;;;;;60.27;4.30;;;;;;;;;;5092859;28;20799;-75
2022/06/11 04:53:17;;;;;;;60.87;4.20;;;;;;;;;;5092699;28;20470;-74
2022/06/11 04:55:45;;;;;;;60.60;4.20;;;;;;;;;;5092824;28;20465;-74
2022/06/11 04:58:13;;;;;;;61.10;4.50;;;;;;;;;;5091839;28;20462;-75
2022/06/11 05:00:40;;;;;;;60.50;4.43;;;;;;;;;;5092590;28;20455;-74
2022/06/11 05:03:07;;;;;;;60.90;4.20;;;;;;;;;;5092256;28;21009;-74
2022/06/11 05:05:35;;;;;;;62.13;4.43;;;;;;;;;;5092413;28;20495;-74
2022/06/11 05:08:03;;;;;;;61.10;4.77;;;;;;;;;;5091708;28;20453;-74
2022/06/11 05:10:31;;;;;;;60.80;4.30;;;;;;;;;;5092158;28;20446;-74
2022/06/11 05:12:58;;;;;;;62.10;5.23;;;;;;;;;;5092106;28;21072;-74
2022/06/11 05:15:25;;;;;;;61.17;4.80;;;;;;;;;;5092205;28;20486;-74
2022/06/11 05:17:53;;;;;;;63.40;3.83;;;;;;;;;;5091513;28;20445;-74
2022/06/11 05:20:20;;;;;;;60.80;4.33;;;;;;;;;;5091878;28;20529;-74
2022/06/11 05:22:49;;;;;;;60.50;4.43;;;;;;;;;;5092008;28;20478;-74
2022/06/11 05:25:18;;;;;;;60.57;4.30;;;;;;;;;;5092153;28;20501;-74
2022/06/11 05:27:46;;;;;;;59.77;4.00;;;;;;;;;;5091435;28;20457;-74
2022/06/11 05:30:16;;;;;;;59.87;3.47;;;;;;;;;;5092050;28;20462;-74
2022/06/11 05:32:44;;;;;;;59.57;3.73;;;;;;;;;;5092395;28;20468;-74
2022/06/11 05:35:15;;;;;;;59.83;4.17;;;;;;;;;;5092198;28;20498;-74
2022/06/11 05:37:42;;;;;;;59.30;3.60;;;;;;;;;;5091383;28;20462;-74
2022/06/11 05:40:11;;;;;;;61.17;4.17;;;;;;;;;;5091933;28;20534;-74
2022/06/11 05:42:39;;;;;;;60.50;4.43;;;;;;;;;;5091617;28;20481;-74
2022/06/11 05:45:06;;;;;;;59.60;3.60;;;;;;;;;;5092157;28;20674;-74
2022/06/11 05:47:35;;;;;;;59.87;4.10;;;;;;;;;;5091459;28;20456;-74
2022/06/11 05:50:03;;;;;;;60.33;3.60;;;;;;;;;;5091862;28;20449;-74
2022/06/11 05:52:31;;;;;;;60.57;4.43;;;;;;;;;;5091722;28;20560;-74
2022/06/11 05:54:58;;;;;;;61.00;4.40;;;;;;;;;;5091938;28;20452;-74
2022/06/11 05:57:28;;;;;;;61.07;3.77;;;;;;;;;;5091438;28;20447;-74
2022/06/11 05:59:58;;;;;;;60.07;4.00;;;;;;;;;;5091766;28;20449;-74
2022/06/11 06:02:25;;;;;;;59.60;3.80;;;;;;;;;;5091769;28;20464;-75
2022/06/11 06:04:52;;;;;;;59.70;4.20;;;;;;;;;;5091753;28;20933;-75
2022/06/11 06:07:19;;;;;;;60.07;4.10;;;;;;;;;;5091035;28;20453;-74
2022/06/11 06:09:47;;;;;;;60.23;4.33;;;;;;;;;;5091553;28;20448;-74
2022/06/11 06:12:15;;;;;;;61.27;4.33;;;;;;;;;;5091720;28;20468;-75
2022/06/11 06:14:44;;;;;;;59.40;3.67;;;;;;;;;;5091835;28;20459;-74
2022/06/11 06:17:11;;;;;;;59.67;3.83;;;;;;;;;;5091011;28;20468;-74
2022/06/11 06:19:38;;;;;;;59.37;3.37;;;;;;;;;;5091675;28;20548;-75
2022/06/11 06:22:05;;;;;;;59.87;4.13;;;;;;;;;;5091445;28;20848;-75
2022/06/11 06:24:33;;;;;;;59.27;3.47;;;;;;;;;;5091910;28;20540;-74
2022/06/11 06:27:00;;;;;;;60.97;3.97;;;;;;;;;;5091392;28;20485;-74
2022/06/11 06:29:27;;;;;;;64.83;4.27;;;;;;;;;;5091059;28;20456;-74
2022/06/11 06:31:56;;;;;;;59.30;3.53;;;;;;;;;;5091595;28;20477;-72
2022/06/11 06:34:24;;;;;;;59.50;3.60;;;;;;;;;;5095067;28;20531;-73
2022/06/11 06:36:51;;;;;;;59.30;3.37;;;;;;;;;;5095158;28;20536;-73
2022/06/11 06:39:18;;;;;;;59.23;3.80;;;;;;;;;;5094545;28;20841;-73
2022/06/11 06:41:45;;;;;;;61.03;4.10;;;;;;;;;;5095124;28;20555;-73
2022/06/11 06:44:12;;;;;;;64.83;3.60;;;;;;;;;;5095008;28;20451;-73
2022/06/11 06:46:39;;;;;;;59.30;3.60;;;;;;;;;;5095089;28;20492;-73
2022/06/11 06:49:08;;;;;;;59.40;3.57;;;;;;;;;;5094612;28;20737;-73
2022/06/11 06:51:35;;;;;;;61.07;3.47;;;;;;;;;;5094958;28;20477;-73
2022/06/11 06:54:02;;;;;;;60.17;3.50;;;;;;;;;;5095004;28;20445;-73
2022/06/11 06:56:33;;;;;;;59.70;3.67;;;;;;;;;;5095207;28;20884;-73
2022/06/11 06:59:00;;;;;;;59.50;3.70;;;;;;;;;;5094368;28;20576;-73
2022/06/11 07:01:27;;;;;;;59.50;3.60;;;;;;;;;;5094760;28;20968;-73
2022/06/11 07:03:54;;;;;;;59.50;3.70;;;;;;;;;;5094542;28;20493;-73
2022/06/11 07:06:23;;;;;;;60.30;3.23;;;;;;;;;;5095227;28;20482;-74
2022/06/11 07:08:50;;;;;;;59.53;3.63;;;;;;;;;;5094227;28;20533;-73
2022/06/11 07:11:18;;;;;;;60.60;3.83;;;;;;;;;;5094680;28;20477;-73
2022/06/11 07:13:45;;;;;;;60.10;3.70;;;;;;;;;;5094516;28;20826;-74
2022/06/11 07:16:13;;;;;;;59.33;3.13;;;;;;;;;;5094676;28;20525;-73
2022/06/11 07:18:41;;;;;;;58.70;3.10;;;;;;;;;;5093983;28;20457;-73
2022/06/11 07:21:10;;;;;;;59.00;3.50;;;;;;;;;;5094699;28;20860;-73
2022/06/11 07:23:41;;;;;;;59.50;3.60;;;;;;;;;;5094567;28;20445;-73
2022/06/11 07:26:11;;;;;;;59.30;3.00;;;;;;;;;;5094272;28;20489;-73
2022/06/11 07:28:39;;;;;;;59.10;3.20;;;;;;;;;;5093574;28;20456;-73
2022/06/11 07:31:07;;;;;;;62.80;3.70;;;;;;;;;;5094181;28;20515;-73
2022/06/11 07:33:34;;;;;;;59.20;3.80;;;;;;;;;;5094284;28;20463;-73
2022/06/11 07:36:01;;;;;;;58.70;3.27;;;;;;;;;;5094239;28;20453;-73
2022/06/11 07:38:28;;;;;;;59.67;3.50;;;;;;;;;;5093145;28;20671;-73
2022/06/11 07:40:57;;;;;;;58.87;2.90;;;;;;;;;;5094247;28;20521;-74
2022/06/11 07:43:24;;;;;;;59.20;3.33;;;;;;;;;;5093454;28;20468;-74
2022/06/11 07:45:51;;;;;;;58.77;3.00;;;;;;;;;;5094156;28;20624;-74
2022/06/11 07:48:19;;;;;;;58.83;3.00;;;;;;;;;;5093234;28;20815;-74
2022/06/11 07:50:47;;;;;;;62.87;2.90;;;;;;;;;;5093908;28;20967;-74
2022/06/11 07:53:15;;;;;;;59.60;2.93;;;;;;;;;;5093541;28;20546;-74
2022/06/11 07:55:44;;;;;;;58.50;3.03;;;;;;;;;;5093789;28;20544;-74
2022/06/11 07:58:13;;;;;;;62.87;3.10;;;;;;;;;;5092940;28;20821;-74
2022/06/11 08:00:42;;;;;;;60.07;3.20;;;;;;;;;;5094058;28;20529;-74
2022/06/11 08:03:10;;;;;;;59.00;3.23;;;;;;;;;;5093656;28;20545;-74
2022/06/11 08:05:37;;;;;;;61.80;3.27;;;;;;;;;;5093439;28;20981;-74
2022/06/11 08:08:07;;;;;;;60.10;3.53;;;;;;;;;;5092928;28;20862;-74
2022/06/11 08:10:34;;;;;;;60.50;3.50;;;;;;;;;;5093387;28;20477;-72
2022/06/11 08:13:02;;;;;;;58.43;2.97;;;;;;;;;;5093771;28;20508;-74
2022/06/11 08:15:31;;;;;;;59.30;3.00;;;;;;;;;;5093324;28;20959;-74
2022/06/11 08:17:59;;;;;;;58.63;2.90;;;;;;;;;;5092711;28;20939;-74
2022/06/11 08:20:27;;;;;;;59.13;3.30;;;;;;;;;;5093348;28;20449;-74
2022/06/11 08:22:54;;;;;;;59.20;3.20;;;;;;;;;;5093025;28;20466;-74
2022/06/11 08:25:21;;;;;;;58.63;3.27;;;;;;;;;;5093062;28;20871;-74
2022/06/11 08:27:49;;;;;;;58.37;2.97;;;;;;;;;;5092781;28;20829;-74
2022/06/11 08:30:18;;;;;;;59.40;3.53;;;;;;;;;;5093267;28;20448;-74
2022/06/11 08:32:47;;;;;;;59.13;3.20;;;;;;;;;;5093000;28;20523;-74
2022/06/11 08:35:14;;;;;;;60.57;3.43;;;;;;;;;;5093171;28;20509;-74
2022/06/11 08:37:42;;;;;;;58.50;2.87;;;;;;;;;;5091993;28;20461;-74
2022/06/11 08:40:12;;;;;;;58.80;3.07;;;;;;;;;;5092975;28;21046;-74
2022/06/11 08:42:41;;;;;;;61.60;3.50;;;;;;;;;;5092943;28;20894;-74
2022/06/11 08:45:22;;;;;;;58.97;3.03;;;;;;;;;;5093036;28;20826;-73
2022/06/11 08:47:51;;;;;;;58.57;2.83;;;;;;;;;;5092564;28;20533;-74
2022/06/11 08:50:21;;;;;;;57.80;2.83;;;;;;;;;;5092737;28;20485;-74
2022/06/11 08:52:49;;;;;;;59.83;3.50;;;;;;;;;;5092748;28;20466;-74
2022/06/11 08:55:16;;;;;;;58.73;2.80;;;;;;;;;;5092458;28;20523;-73
2022/06/11 08:57:52;;;;;;;59.23;3.23;;;;;;;;;;5091815;28;20964;-74
2022/06/11 09:00:20;;;;;;;59.53;3.10;;;;;;;;;;5092650;28;20449;-73
2022/06/11 09:03:09;;;;;;;58.47;2.90;;;;;;;;;;5092309;28;21009;-73
2022/06/11 09:05:44;;;;;;;58.33;2.70;;;;;;;;;;5092556;28;20449;-73
2022/06/11 09:08:27;;;;;;;58.80;3.00;;;;;;;;;;5091807;28;20449;-73
2022/06/11 09:11:03;;;;;;;58.70;3.33;;;;;;;;;;5092534;28;20840;-73
2022/06/11 09:13:49;;;;;;;59.27;3.27;;;;;;;;;;5092449;28;20477;-73
2022/06/11 09:16:22;;;;;;;58.90;3.07;;;;;;;;;;5092196;28;20868;-73
2022/06/11 09:19:07;;;;;;;57.60;2.57;;;;;;;;;;5091976;28;20448;-73
2022/06/11 09:21:44;;;;;;;58.43;2.70;;;;;;;;;;5092116;28;20476;-73
2022/06/11 09:24:32;;;;;;;61.17;4.30;;;;;;;;;;5092401;28;20503;-73
2022/06/11 09:27:01;;;;;;;58.30;2.60;;;;;;;;;;5066324;28;20483;-73
2022/06/11 09:29:30;;;;;;;62.03;3.20;;;;;;;;;;5091453;28;20457;-73
2022/06/11 09:32:01;;;;;;;59.77;2.97;;;;;;;;;;5091889;28;20474;-73
2022/06/11 09:34:36;;;;;;;59.10;3.00;;;;;;;;;;5092308;28;20524;-73
2022/06/11 09:37:07;;;;;;;58.57;2.80;;;;;;;;;;5092156;28;20475;-73
2022/06/11 09:39:40;;;;;;;58.50;2.40;;;;;;;;;;5092218;28;20456;-73
2022/06/11 09:42:22;;;;;;;60.00;2.97;;;;;;;;;;5092015;28;20548;-73
2022/06/11 09:44:53;;;;;;;58.80;3.03;;;;;;;;;;5079285;28;20451;-73
2022/06/11 09:47:25;;;;;;;58.80;2.83;;;;;;;;;;5091073;28;21033;-73
2022/06/11 09:49:59;;;;;;;58.73;2.80;;;;;;;;;;5091989;28;20453;-74
2022/06/11 09:52:30;;;;;;;58.47;2.60;;;;;;;;;;5091905;28;20462;-74
2022/06/11 09:55:02;;;;;;;59.77;2.70;;;;;;;;;;5091771;28;20542;-74
2022/06/11 09:57:37;;;;;;;58.77;2.70;;;;;;;;;;5091360;28;20450;-74
2022/06/11 10:00:07;;;;;;;58.90;3.27;;;;;;;;;;5091924;28;20808;-74
2022/06/11 10:02:37;;;;;;;58.20;2.60;;;;;;;;;;5091796;28;20566;-74
2022/06/11 10:05:09;;;;;;;58.27;2.37;;;;;;;;;;5091648;28;20442;-74
2022/06/11 10:07:39;;;;;;;59.47;2.90;;;;;;;;;;5093820;28;20486;-74
2022/06/11 10:10:08;;;;;;;60.70;3.03;;;;;;;;;;5095745;28;20454;-74
2022/06/11 10:12:38;;;;;;;58.40;2.20;;;;;;;;;;5095711;28;20471;-74
2022/06/11 10:15:07;;;;;;;58.77;2.80;;;;;;;;;;5095908;28;20452;-74
2022/06/11 10:17:37;;;;;;;58.27;2.30;;;;;;;;;;5094966;28;20451;-74
2022/06/11 10:20:10;;;;;;;59.37;2.53;;;;;;;;;;5095899;28;20446;-72
2022/06/11 10:22:39;;;;;;;58.47;2.53;;;;;;;;;;5095594;28;20470;-73
2022/06/11 10:25:15;;;;;;;59.57;2.43;;;;;;;;;;5095603;28;20976;-73
2022/06/11 10:27:44;;;;;;;59.93;2.50;;;;;;;;;;5094764;28;20477;-73
2022/06/11 10:30:17;;;;;;;57.57;2.17;;;;;;;;;;5095538;28;20533;-73
2022/06/11 10:32:46;;;;;;;58.10;2.60;;;;;;;;;;5095520;28;20604;-73
2022/06/11 10:35:18;;;;;;;58.90;2.60;;;;;;;;;;5095504;28;20474;-74
2022/06/11 10:37:48;;;;;;;59.60;2.67;;;;;;;;;;5094623;28;20450;-73
2022/06/11 10:40:19;;;;;;;58.10;2.67;;;;;;;;;;5095488;28;20446;-74
2022/06/11 10:42:50;;;;;;;58.40;2.50;;;;;;;;;;5095038;28;20470;-74
2022/06/11 10:45:17;;;;;;;58.20;2.50;;;;;;;;;;5095433;28;20485;-74
2022/06/11 10:47:46;;;;;;;58.30;3.00;;;;;;;;;;5094569;28;20483;-73
2022/06/11 10:50:20;;;;;;;59.20;2.80;;;;;;;;;;5095213;28;20549;-74
2022/06/11 10:52:50;;;;;;;57.70;2.60;;;;;;;;;;5094966;28;20470;-74
2022/06/11 10:55:19;;;;;;;57.80;2.40;;;;;;;;;;5094951;28;20478;-74
2022/06/11 10:57:49;;;;;;;57.90;2.63;;;;;;;;;;5094594;28;20438;-73
2022/06/11 11:00:18;;;;;;;57.17;2.33;;;;;;;;;;5095208;28;20454;-73
2022/06/11 11:02:48;;;;;;;57.17;2.43;;;;;;;;;;5094795;28;20816;-73
2022/06/11 11:05:16;;;;;;;60.83;2.93;;;;;;;;;;5094749;28;20446;-73
2022/06/11 11:07:47;;;;;;;57.70;2.40;;;;;;;;;;5093955;28;20537;-74
2022/06/11 11:10:26;;;;;;;57.17;2.17;;;;;;;;;;5095026;28;20816;-74
2022/06/11 11:12:57;;;;;;;57.47;2.53;;;;;;;;;;5094765;28;20837;-71
2022/06/11 11:15:27;;;;;;;57.60;2.67;;;;;;;;;;5094854;28;20451;-72
2022/06/11 11:17:55;;;;;;;56.80;2.27;;;;;;;;;;5093386;28;21061;-73
2022/06/11 11:20:32;;;;;;;56.87;2.63;;;;;;;;;;5094485;28;20452;-73
2022/06/11 11:23:02;;;;;;;56.67;2.50;;;;;;;;;;5094450;28;20480;-74
2022/06/11 11:25:32;;;;;;;58.50;2.60;;;;;;;;;;5094641;28;20444;-73
2022/06/11 11:28:01;;;;;;;57.07;2.63;;;;;;;;;;5093722;28;20466;-74
2022/06/11 11:30:33;;;;;;;58.60;2.70;;;;;;;;;;5094230;28;20450;-73
2022/06/11 11:33:13;;;;;;;57.27;2.53;;;;;;;;;;5094414;28;20505;-74
2022/06/11 11:35:42;;;;;;;60.67;3.47;;;;;;;;;;5094605;28;20545;-73
2022/06/11 11:38:17;;;;;;;57.20;2.97;;;;;;;;;;5093481;28;20569;-73
2022/06/11 11:40:53;;;;;;;57.47;2.60;;;;;;;;;;5094361;28;20474;-73
2022/06/11 11:43:21;;;;;;;57.20;2.87;;;;;;;;;;5094533;28;20864;-74
2022/06/11 11:45:49;;;;;;;57.17;2.60;;;;;;;;;;5094216;28;20453;-73
2022/06/11 11:48:17;;;;;;;57.20;2.90;;;;;;;;;;5093487;28;20443;-73
2022/06/11 11:50:44;;;;;;;57.70;2.80;;;;;;;;;;5094029;28;20474;-73
2022/06/11 11:53:17;;;;;;;57.60;3.10;;;;;;;;;;5094029;28;20523;-73
2022/06/11 11:55:54;;;;;;;58.27;2.63;;;;;;;;;;5093838;28;20538;-74
2022/06/11 11:58:26;;;;;;;57.80;2.87;;;;;;;;;;5093273;28;20532;-73
2022/06/11 12:00:55;;;;;;;56.87;2.73;;;;;;;;;;5093807;28;20450;-74
2022/06/11 12:03:24;;;;;;;57.33;2.53;;;;;;;;;;5093484;28;20857;-73
2022/06/11 12:05:53;;;;;;;59.37;3.03;;;;;;;;;;5093509;28;20438;-74
2022/06/11 12:08:22;;;;;;;58.23;2.30;;;;;;;;;;5092884;28;20969;-73
2022/06/11 12:10:51;;;;;;;57.00;2.60;;;;;;;;;;5093610;28;21010;-73
2022/06/11 12:13:23;;;;;;;55.97;2.50;;;;;;;;;;5093549;28;20467;-73
2022/06/11 12:15:52;;;;;;;57.23;2.23;;;;;;;;;;5093588;28;20446;-72
2022/06/11 12:18:21;;;;;;;57.93;2.87;;;;;;;;;;5092620;28;20486;-74
2022/06/11 12:20:50;;;;;;;56.77;2.20;;;;;;;;;;5093313;28;20785;-73
2022/06/11 12:23:22;;;;;;;58.13;2.50;;;;;;;;;;5093340;28;20466;-74
2022/06/11 12:25:56;;;;;;;56.90;2.63;;;;;;;;;;5093533;28;20446;-74
2022/06/11 12:28:24;;;;;;;59.40;2.30;;;;;;;;;;5092506;28;20442;-73
2022/06/11 12:30:51;;;;;;;58.60;2.50;;;;;;;;;;5092096;28;20459;-73
2022/06/11 12:33:19;;;;;;;57.00;2.20;;;;;;;;;;5092880;28;20481;-73
2022/06/11 12:35:50;;;;;;;57.87;2.87;;;;;;;;;;5093156;28;20446;-73
2022/06/11 12:38:21;;;;;;;57.47;2.60;;;;;;;;;;5092364;28;20482;-73
2022/06/11 12:40:54;;;;;;;57.67;2.30;;;;;;;;;;5093125;28;20960;-73
2022/06/11 12:43:27;;;;;;;57.17;2.80;;;;;;;;;;5093392;28;20573;-73
2022/06/11 12:45:57;;;;;;;57.30;2.50;;;;;;;;;;5093115;28;20545;-73
2022/06/11 12:48:29;;;;;;;57.37;2.57;;;;;;;;;;5092361;28;20525;-73
2022/06/11 12:51:01;;;;;;;56.70;2.27;;;;;;;;;;5092949;28;21059;-73
2022/06/11 12:53:38;;;;;;;56.80;2.20;;;;;;;;;;5092760;28;20520;-74
2022/06/11 12:56:28;;;;;;;58.90;2.77;;;;;;;;;;5092593;28;20446;-73
2022/06/11 12:59:05;;;;;;;57.40;2.50;;;;;;;;;;5092127;28;20486;-73
2022/06/11 13:01:36;;;;;;;57.97;2.43;;;;;;;;;;5092694;28;20466;-73
2022/06/11 13:04:21;;;;;;;58.77;2.33;;;;;;;;;;5092516;28;20484;-74
2022/06/11 13:06:58;;;;;;;57.77;2.80;;;;;;;;;;5092668;28;20461;-74
2022/06/11 13:09:37;;;;;;;58.40;2.73;;;;;;;;;;5092001;28;20446;-73
2022/06/11 13:12:11;;;;;;;58.23;2.40;;;;;;;;;;5092624;28;20778;-73
2022/06/11 13:14:47;;;;;;;57.77;2.97;;;;;;;;;;5092236;28;20445;-74
2022/06/11 13:17:19;;;;;;;56.80;2.63;;;;;;;;;;5091931;28;20512;-73
2022/06/11 13:19:48;;;;;;;58.10;2.90;;;;;;;;;;5092549;28;20473;-73
2022/06/11 13:22:20;;;;;;;57.70;2.60;;;;;;;;;;5092042;28;20990;-73
2022/06/11 13:24:49;;;;;;;57.40;2.40;;;;;;;;;;5092323;28;20446;-73
2022/06/11 13:27:28;;;;;;;58.07;2.60;;;;;;;;;;5091592;28;20449;-74
2022/06/11 13:30:01;;;;;;;57.10;2.50;;;;;;;;;;5092456;28;20449;-73
2022/06/11 13:32:33;;;;;;;57.20;2.60;;;;;;;;;;5091864;28;20466;-73
2022/06/11 13:35:08;;;;;;;57.33;2.37;;;;;;;;;;5092164;28;20449;-72
2022/06/11 13:37:40;;;;;;;57.33;2.57;;;;;;;;;;5091148;28;20486;-73
2022/06/11 13:40:26;;;;;;;57.10;2.20;;;;;;;;;;5092321;28;20541;-73
2022/06/11 13:43:01;;;;;;;57.10;2.47;;;;;;;;;;5091514;28;20468;-73
2022/06/11 13:45:35;;;;;;;58.57;2.20;;;;;;;;;;5091975;28;20445;-73
2022/06/11 13:48:12;;;;;;;57.87;2.40;;;;;;;;;;5091167;28;20442;-73
2022/06/11 13:50:45;;;;;;;58.17;2.30;;;;;;;;;;5092124;28;20497;-73
2022/06/11 13:56:11;;;;;;;59.97;2.90;;;;;;;;;;5091952;28;20922;-73
2022/06/11 13:58:48;;;;;;;61.90;2.90;;;;;;;;;;5091040;28;20477;-73
2022/06/11 14:01:22;;;;;;;57.60;2.10;;;;;;;;;;5091860;28;20521;-73
2022/06/11 14:04:07;;;;;;;58.37;2.50;;;;;;;;;;5091907;28;21022;-73
2022/06/11 14:06:37;;;;;;;57.57;2.50;;;;;;;;;;5091768;28;20453;-73
2022/06/11 14:10:20;;;;;;;58.07;2.50;;;;;;;;;;5091026;28;20859;-73
2022/06/11 14:11:57;;;;;;;58.83;3.20;;;;;;;;;;5091530;28;20497;-73
2022/06/11 14:14:33;;;;;;;57.97;2.90;;;;;;;;;;5091885;28;20443;-73
2022/06/11 14:17:01;;;;;;;57.33;2.57;;;;;;;;;;5091680;28;20446;-73
2022/06/11 14:19:41;;;;;;;57.47;2.33;;;;;;;;;;5090982;28;20875;-73
2022/06/11 14:22:26;;;;;;;58.57;3.20;;;;;;;;;;5091799;28;20745;-73
2022/06/11 14:25:02;;;;;;;57.20;2.43;;;;;;;;;;5091540;28;20930;-73
2022/06/11 14:27:35;;;;;;;57.90;2.93;;;;;;;;;;5090839;28;20529;-73
2022/06/11 14:30:05;;;;;;;57.53;2.60;;;;;;;;;;5091571;28;20582;-73
2022/06/11 14:32:33;;;;;;;59.30;2.70;;;;;;;;;;5091688;28;20477;-73
2022/06/11 14:35:14;;;;;;;57.90;2.70;;;;;;;;;;5091487;28;20541;-73
2022/06/11 14:37:41;;;;;;;57.37;2.10;;;;;;;;;;5090773;28;20481;-73
2022/06/11 14:40:19;;;;;;;60.60;3.03;;;;;;;;;;5091765;28;20546;-73
2022/06/11 14:43:04;;;;;;;58.07;2.70;;;;;;;;;;5091472;28;20534;-72
2022/06/11 14:45:52;;;;;;;62.13;3.07;;;;;;;;;;5091390;28;20527;-73
2022/06/11 14:48:24;;;;;;;57.00;2.17;;;;;;;;;;5090871;28;20538;-73
2022/06/11 14:50:53;;;;;;;57.20;2.50;;;;;;;;;;5091638;28;20888;-72
2022/06/11 14:53:23;;;;;;;58.40;3.00;;;;;;;;;;5091561;28;20979;-72